Time;durP1;ratioP1;P1;durP2;ratioP2;P2;SDS_P1;SDS_P2;PMS_P1;PMS_P2;Temp;Humidity;BMP_temperature;BMP_pressure;BME280_temperature;BME280_humidity;BME280_pressure;Samples;Min_cycle;Max_cycle;Signal;HPM_P1;HPM_P2
2022/04/07 00:01:00;;;;;;;5.17;2.97;;;;;;;13.19;53.44;93637.63;5072870;28;20226;-61
2022/04/07 00:03:26;;;;;;;6.10;2.50;;;;;;;13.35;52.96;93632.41;5074431;28;20201;-62
2022/04/07 00:05:51;;;;;;;5.50;2.97;;;;;;;13.43;52.68;93631.56;5074130;28;20200;-61
2022/04/07 00:08:17;;;;;;;3.60;2.70;;;;;;;13.22;53.60;93621.19;5074528;28;20193;-64
2022/04/07 00:10:42;;;;;;;4.63;3.30;;;;;;;13.27;53.29;93619.72;5074166;28;20189;-62
2022/04/07 00:13:08;;;;;;;3.47;2.43;;;;;;;13.34;52.97;93612.16;5074261;28;20200;-61
2022/04/07 00:15:33;;;;;;;4.83;2.93;;;;;;;13.22;53.16;93603.34;5072722;28;20197;-62
2022/04/07 00:17:59;;;;;;;3.87;2.80;;;;;;;13.23;53.43;93600.59;5072930;28;20657;-63
2022/04/07 00:20:26;;;;;;;6.40;2.87;;;;;;;13.14;53.71;93595.75;5073908;28;20220;-62
2022/04/07 00:22:52;;;;;;;4.83;2.67;;;;;;;13.32;53.88;93593.69;5072713;28;20185;-64
2022/04/07 00:25:18;;;;;;;4.97;2.80;;;;;;;13.27;54.86;93578.88;5073832;28;20212;-62
2022/04/07 00:27:44;;;;;;;5.13;3.07;;;;;;;13.45;54.18;93588.81;5074101;28;20517;-63
2022/04/07 00:30:13;;;;;;;4.07;2.70;;;;;;;13.24;55.03;93566.47;5073510;28;20260;-61
2022/04/07 00:32:43;;;;;;;5.63;2.63;;;;;;;13.39;54.07;93572.38;5073947;28;20191;-62
2022/04/07 00:35:08;;;;;;;5.40;2.63;;;;;;;13.39;53.92;93566.50;5073585;28;20650;-62
2022/04/07 00:37:34;;;;;;;3.53;2.60;;;;;;;13.17;54.86;93547.69;5073410;28;20716;-63
2022/04/07 00:40:00;;;;;;;3.27;2.73;;;;;;;13.10;55.53;93554.47;5073288;28;20277;-60
2022/04/07 00:42:25;;;;;;;3.77;2.93;;;;;;;13.20;55.53;93544.81;5073848;28;20597;-64
2022/04/07 00:44:50;;;;;;;2.97;2.67;;;;;;;13.15;54.57;93570.03;5073278;28;20227;-62
2022/04/07 00:47:16;;;;;;;4.83;2.93;;;;;;;13.09;54.65;93573.28;5072981;28;20196;-61
2022/04/07 00:49:41;;;;;;;5.90;2.90;;;;;;;12.91;55.66;93549.78;5071509;28;20558;-62
2022/04/07 00:52:08;;;;;;;3.37;2.77;;;;;;;12.81;56.54;93539.03;5054755;28;20201;-62
2022/04/07 00:54:34;;;;;;;3.63;2.80;;;;;;;12.99;56.13;93551.50;5073203;28;20177;-68
2022/04/07 00:57:00;;;;;;;3.97;2.87;;;;;;;12.87;55.66;93542.66;5073220;28;20212;-62
2022/04/07 00:59:28;;;;;;;4.87;3.10;;;;;;;12.89;55.60;93536.41;5073215;28;20181;-65
2022/04/07 01:01:53;;;;;;;6.13;3.00;;;;;;;12.82;56.51;93529.63;5073050;28;20215;-60
2022/04/07 01:04:19;;;;;;;3.87;2.93;;;;;;;12.93;56.64;93524.91;5073062;28;20180;-59
2022/04/07 01:06:47;;;;;;;8.27;3.30;;;;;;;12.98;56.96;93524.41;5072901;28;20208;-64
2022/04/07 01:09:14;;;;;;;10.03;3.23;;;;;;;12.91;56.47;93518.41;5073431;28;20593;-63
2022/04/07 01:11:40;;;;;;;4.80;3.13;;;;;;;12.87;57.14;93517.94;5072963;28;20204;-68
2022/04/07 01:14:06;;;;;;;6.47;3.40;;;;;;;12.80;56.63;93517.06;5073099;28;20185;-64
2022/04/07 01:16:32;;;;;;;10.33;4.20;;;;;;;12.80;57.05;93506.84;5072540;28;20276;-64
2022/04/07 01:18:59;;;;;;;7.73;3.43;;;;;;;12.63;57.05;93495.97;5072581;28;20654;-62
2022/04/07 01:21:26;;;;;;;3.80;2.90;;;;;;;12.73;57.59;93480.44;5072504;28;20232;-61
2022/04/07 01:24:05;;;;;;;4.13;2.97;;;;;;;12.68;57.42;93483.50;5060375;23;20234;-61
2022/04/07 01:26:42;;;;;;;4.77;2.70;;;;;;;12.74;57.44;93478.69;5052476;28;20189;-59
2022/04/07 01:29:10;;;;;;;3.07;2.50;;;;;;;12.77;56.96;93493.63;5052495;28;20219;-61
2022/04/07 01:31:36;;;;;;;4.50;3.17;;;;;;;12.97;56.68;93503.19;5050880;28;20212;-60
2022/04/07 01:34:03;;;;;;;3.43;2.97;;;;;;;13.03;57.21;93487.19;5052821;28;20177;-62
2022/04/07 01:36:34;;;;;;;3.23;2.60;;;;;;;13.02;56.49;93477.16;5052379;28;20273;-62
2022/04/07 01:39:01;;;;;;;4.23;2.80;;;;;;;13.04;56.66;93472.72;5052270;28;20217;-63
2022/04/07 01:41:27;;;;;;;5.23;3.20;;;;;;;12.91;56.73;93467.41;5052171;28;20216;-61
2022/04/07 01:43:56;;;;;;;6.90;3.43;;;;;;;12.91;57.47;93445.22;5052237;28;20181;-63
2022/04/07 01:46:23;;;;;;;4.20;2.80;;;;;;;13.09;56.58;93450.81;5052110;28;20197;-63
2022/04/07 01:48:50;;;;;;;13.03;3.37;;;;;;;13.09;56.49;93450.81;5051285;28;20599;-60
2022/04/07 01:51:16;;;;;;;4.30;3.80;;;;;;;12.98;57.60;93438.47;5052103;28;20193;-64
2022/04/07 01:53:43;;;;;;;7.07;3.73;;;;;;;13.03;56.90;93443.06;5052508;28;20220;-62
2022/04/07 01:56:09;;;;;;;5.83;3.07;;;;;;;12.93;56.97;93442.50;5052043;28;20226;-61
2022/04/07 01:58:36;;;;;;;6.93;3.30;;;;;;;12.95;56.67;93435.47;5052525;28;20212;-64
2022/04/07 02:01:04;;;;;;;8.87;3.57;;;;;;;13.02;57.17;93423.59;5052117;28;20213;-60
2022/04/07 02:03:30;;;;;;;15.07;3.90;;;;;;;12.89;57.61;93414.00;5050840;28;20189;-64
2022/04/07 02:06:12;;;;;;;11.67;4.53;;;;;;;12.87;57.47;93415.13;5059819;23;20228;-62
2022/04/07 02:08:38;;;;;;;4.27;3.03;;;;;;;12.83;57.18;93427.44;5011370;28;20653;-60
2022/04/07 02:11:04;;;;;;;6.10;2.73;;;;;;;12.38;58.15;93404.56;5012290;28;20218;-64
2022/04/07 02:13:32;;;;;;;4.77;2.73;;;;;;;12.41;58.05;93405.03;5012273;28;20217;-61
2022/04/07 02:15:58;;;;;;;8.27;2.50;;;;;;;12.38;59.48;93389.28;5012070;28;20211;-63
2022/04/07 02:18:23;;;;;;;4.90;3.27;;;;;;;12.36;58.88;93402.19;5012198;28;20202;-62
2022/04/07 02:20:49;;;;;;;8.47;2.30;;;;;;;12.27;59.34;93394.78;5011805;28;20219;-61
2022/04/07 02:23:14;;;;;;;3.87;2.80;;;;;;;12.38;59.90;93379.09;5012212;28;20183;-60
2022/04/07 02:25:40;;;;;;;5.07;2.50;;;;;;;12.32;59.14;93382.34;5010737;28;20229;-61
2022/04/07 02:28:05;;;;;;;5.73;2.93;;;;;;;12.29;59.08;93388.56;5011970;28;20182;-62
2022/04/07 02:30:31;;;;;;;4.97;2.60;;;;;;;12.16;59.30;93380.69;5027066;28;20238;-61
2022/04/07 02:32:56;;;;;;;8.57;3.00;;;;;;;12.09;59.44;93369.59;5010973;28;20675;-61
2022/04/07 02:35:22;;;;;;;3.47;2.63;;;;;;;11.93;59.66;93363.81;5011109;28;20202;-61
2022/04/07 02:37:47;;;;;;;3.90;2.77;;;;;;;11.83;60.95;93358.97;5027237;28;20186;-59
2022/04/07 02:40:13;;;;;;;6.30;2.30;;;;;;;11.75;61.41;93380.19;5011803;28;20484;-60
2022/04/07 02:42:40;;;;;;;5.03;2.97;;;;;;;11.65;61.68;93363.50;5012550;28;20183;-65
2022/04/07 02:45:06;;;;;;;3.80;2.53;;;;;;;11.69;61.96;93345.22;5011810;28;20186;-61
2022/04/07 02:47:40;;;;;;;3.57;2.43;;;;;;;11.70;62.60;93328.16;5012240;28;20220;-61
2022/04/07 02:50:06;;;;;;;4.53;2.87;;;;;;;11.90;62.90;93336.16;5011875;28;20174;-60
2022/04/07 02:52:32;;;;;;;3.47;2.90;;;;;;;11.91;61.10;93374.19;5011998;28;20190;-63
2022/04/07 02:54:58;;;;;;;7.80;2.80;;;;;;;11.75;61.55;93356.47;5011943;28;20744;-64
2022/04/07 02:57:26;;;;;;;4.47;2.80;;;;;;;11.73;61.80;93343.91;5012185;28;20270;-59
2022/04/07 02:59:52;;;;;;;3.83;2.67;;;;;;;11.71;62.45;93333.09;5011658;28;20175;-60
2022/04/07 03:02:18;;;;;;;3.93;3.10;;;;;;;11.72;62.50;93328.78;5011963;28;20261;-59
2022/04/07 03:04:43;;;;;;;3.30;2.73;;;;;;;11.77;63.50;93299.34;5011562;28;20262;-62
2022/04/07 03:07:10;;;;;;;3.80;2.90;;;;;;;11.89;63.42;93296.38;5011436;28;20215;-63
2022/04/07 03:09:35;;;;;;;4.00;2.60;;;;;;;11.75;63.25;93285.97;5011539;28;20183;-61
2022/04/07 03:12:01;;;;;;;3.03;2.50;;;;;;;11.67;63.17;93278.41;5012748;28;20273;-61
2022/04/07 03:14:28;;;;;;;4.47;2.90;;;;;;;11.58;63.24;93297.19;5015352;28;20197;-59
2022/04/07 03:16:54;;;;;;;4.53;3.00;;;;;;;11.52;63.19;93292.78;5015545;28;20241;-64
2022/04/07 03:19:20;;;;;;;3.40;3.10;;;;;;;11.27;65.03;93265.88;5015337;28;20211;-60
2022/04/07 03:21:45;;;;;;;3.77;2.90;;;;;;;11.49;65.07;93282.16;5015264;28;20218;-61
2022/04/07 03:24:12;;;;;;;5.73;3.27;;;;;;;11.54;65.46;93285.78;5015228;28;20554;-64
2022/04/07 03:26:40;;;;;;;5.73;3.70;;;;;;;11.69;64.15;93308.78;5015416;28;20207;-62
2022/04/07 03:29:06;;;;;;;4.77;3.17;;;;;;;11.59;63.93;93303.88;5030273;28;20240;-64
2022/04/07 03:31:31;;;;;;;4.53;2.87;;;;;;;11.58;64.13;93294.66;5015291;28;20195;-64
2022/04/07 03:33:57;;;;;;;6.63;3.27;;;;;;;11.43;64.98;93286.16;5014993;28;20209;-62
2022/04/07 03:36:22;;;;;;;5.40;3.13;;;;;;;11.40;65.65;93278.88;5014805;28;20344;-62
2022/04/07 03:38:50;;;;;;;4.23;2.83;;;;;;;11.43;66.07;93265.78;5014879;28;20183;-63
2022/04/07 03:41:16;;;;;;;5.53;2.57;;;;;;;11.27;67.06;93249.84;5014825;28;20227;-64
2022/04/07 03:43:42;;;;;;;4.97;3.20;;;;;;;11.29;67.08;93247.94;5015127;28;20676;-62
2022/04/07 03:46:12;;;;;;;3.77;3.17;;;;;;;11.30;66.66;93240.13;5014908;28;20668;-63
2022/04/07 03:48:38;;;;;;;4.17;2.90;;;;;;;11.37;67.26;93241.03;5013459;28;20167;-61
2022/04/07 03:51:04;;;;;;;5.97;2.80;;;;;;;11.26;67.62;93245.72;5014864;28;20207;-59
2022/04/07 03:53:30;;;;;;;4.93;2.90;;;;;;;11.09;68.08;93227.22;5029963;28;20207;-62
2022/04/07 03:55:55;;;;;;;3.43;3.07;;;;;;;11.06;68.09;93232.66;5014787;28;20230;-62
2022/04/07 03:58:21;;;;;;;6.83;3.20;;;;;;;11.07;68.21;93218.97;5014459;28;20229;-60
2022/04/07 04:00:46;;;;;;;4.93;2.90;;;;;;;10.96;68.85;93217.63;5014420;28;20211;-64
2022/04/07 04:03:12;;;;;;;7.07;3.57;;;;;;;10.99;68.92;93204.56;5014587;28;20171;-64
2022/04/07 04:05:37;;;;;;;4.33;3.13;;;;;;;10.99;70.36;93201.22;5014525;28;20198;-62
2022/04/07 04:08:03;;;;;;;7.13;3.47;;;;;;;11.05;69.79;93215.03;5015100;28;20213;-63
2022/04/07 04:10:29;;;;;;;4.33;3.17;;;;;;;11.32;69.14;93232.31;5014093;28;20646;-60
2022/04/07 04:12:54;;;;;;;5.97;3.73;;;;;;;11.36;69.16;93223.41;5013101;28;20710;-62
2022/04/07 04:15:20;;;;;;;5.40;3.30;;;;;;;11.26;68.63;93233.81;5014186;28;20214;-59
2022/04/07 04:17:45;;;;;;;5.60;3.57;;;;;;;11.37;68.46;93258.84;5014659;28;20195;-61
2022/04/07 04:20:11;;;;;;;9.70;4.03;;;;;;;11.39;69.33;93251.81;5014076;28;20198;-61
2022/04/07 04:22:37;;;;;;;5.97;3.33;;;;;;;11.46;68.42;93269.75;5013461;28;20195;-64
2022/04/07 04:25:04;;;;;;;4.43;3.37;;;;;;;11.47;66.75;93273.91;5012629;28;20549;-59
2022/04/07 04:27:29;;;;;;;4.00;3.07;;;;;;;11.61;68.13;93263.78;5014088;28;20195;-61
2022/04/07 04:29:55;;;;;;;4.87;3.43;;;;;;;11.56;65.70;93295.78;5013688;28;20547;-59
2022/04/07 04:32:20;;;;;;;3.97;3.00;;;;;;;11.43;67.68;93270.88;5014196;28;20548;-64
2022/04/07 04:34:46;;;;;;;7.10;3.20;;;;;;;11.53;66.77;93289.25;5013885;28;20286;-62
2022/04/07 04:37:11;;;;;;;5.23;3.10;;;;;;;11.52;65.43;93310.59;5074351;23;20588;-62
2022/04/07 04:39:37;;;;;;;8.83;3.63;;;;;;;11.48;65.40;93294.06;5073299;28;20634;-63
2022/04/07 04:42:04;;;;;;;3.53;2.93;;;;;;;11.07;66.50;93277.44;5073338;28;20200;-64
2022/04/07 04:44:30;;;;;;;6.53;3.30;;;;;;;10.92;67.16;93266.41;5073410;28;20191;-62
2022/04/07 04:46:55;;;;;;;7.87;3.23;;;;;;;10.92;67.92;93256.25;5072225;28;20205;-61
2022/04/07 04:49:21;;;;;;;5.03;3.23;;;;;;;10.77;67.86;93243.44;5071959;28;20264;-62
2022/04/07 04:51:47;;;;;;;6.60;3.17;;;;;;;10.86;68.56;93247.53;5072705;28;20223;-61
2022/04/07 04:54:13;;;;;;;5.47;3.10;;;;;;;10.95;66.96;93276.22;5073271;28;20189;-62
2022/04/07 04:56:39;;;;;;;5.30;3.07;;;;;;;10.94;68.06;93260.22;5073850;28;20266;-61
2022/04/07 04:59:05;;;;;;;5.43;3.67;;;;;;;11.22;67.81;93263.06;5073055;28;20177;-63
2022/04/07 05:01:30;;;;;;;4.40;3.03;;;;;;;11.44;69.27;93266.59;5060557;23;20268;-62
2022/04/07 05:03:56;;;;;;;5.37;3.20;;;;;;;11.41;67.55;93280.44;5051855;28;20239;-61
2022/04/07 05:06:21;;;;;;;6.10;3.10;;;;;;;11.54;67.75;93283.22;5053233;28;20194;-59
2022/04/07 05:08:47;;;;;;;5.60;3.60;;;;;;;11.47;66.39;93279.00;5053049;28;20190;-62
2022/04/07 05:11:12;;;;;;;5.10;3.63;;;;;;;11.73;66.40;93287.91;5053092;28;20193;-60
2022/04/07 05:13:37;;;;;;;10.50;4.17;;;;;;;11.74;68.55;93255.59;5052904;28;20193;-63
2022/04/07 05:16:03;;;;;;;6.47;3.80;;;;;;;11.66;66.79;93265.81;5052992;28;20219;-62
2022/04/07 05:18:29;;;;;;;6.20;3.13;;;;;;;11.82;64.78;93302.16;5053030;28;20635;-61
2022/04/07 05:20:54;;;;;;;5.83;3.30;;;;;;;11.85;64.52;93301.03;5053003;28;20223;-59
2022/04/07 05:23:19;;;;;;;5.67;3.40;;;;;;;11.80;65.06;93270.97;5051417;28;20193;-64
2022/04/07 05:25:45;;;;;;;3.63;3.03;;;;;;;11.94;63.51;93299.22;5053256;28;20297;-63
2022/04/07 05:28:10;;;;;;;7.07;3.47;;;;;;;11.92;63.19;93298.59;5052808;28;20173;-62
2022/04/07 05:30:36;;;;;;;8.13;3.67;;;;;;;11.75;63.63;93287.72;5051346;28;20214;-60
2022/04/07 05:33:01;;;;;;;6.80;3.53;;;;;;;11.99;68.61;93236.59;5051529;28;20177;-60
2022/04/07 05:35:28;;;;;;;7.37;3.87;;;;;;;12.26;67.95;93251.28;5052017;28;20304;-62
2022/04/07 05:38:01;;;;;;;17.67;6.50;;;;;;;12.36;65.67;93304.56;5052420;28;20181;-63
2022/04/07 05:40:33;;;;;;;13.20;5.83;;;;;;;12.28;64.12;93307.97;5052785;28;20229;-62
2022/04/07 05:43:01;;;;;;;9.40;6.80;;;;;;;12.28;65.83;93285.03;5052678;28;20185;-62
2022/04/07 05:45:27;;;;;;;11.07;7.63;;;;;;;12.31;66.57;93253.31;5052711;28;20582;-64
2022/04/07 05:47:52;;;;;;;9.60;4.80;;;;;;;12.23;65.31;93266.94;5052311;28;20181;-62
2022/04/07 05:50:18;;;;;;;7.77;4.53;;;;;;;12.00;66.15;93252.69;5052888;28;20212;-65
2022/04/07 05:52:43;;;;;;;8.83;4.33;;;;;;;12.07;65.09;93263.75;5052322;28;20182;-63
2022/04/07 05:55:09;;;;;;;6.63;4.00;;;;;;;12.08;64.86;93270.44;5052514;28;20193;-63
2022/04/07 05:57:34;;;;;;;8.53;4.47;;;;;;;12.23;64.91;93261.06;5052271;28;20261;-65
2022/04/07 06:00:12;;;;;;;5.17;3.90;;;;;;;12.31;62.68;93276.25;5052034;28;20189;-59
2022/04/07 06:02:41;;;;;;;8.87;4.47;;;;;;;12.22;63.18;93254.38;5052217;28;20181;-61
2022/04/07 06:05:08;;;;;;;7.27;4.30;;;;;;;12.01;62.73;93255.06;5052287;28;20219;-63
2022/04/07 06:07:34;;;;;;;5.20;3.57;;;;;;;11.93;62.88;93252.56;5051868;28;20643;-60
2022/04/07 06:10:00;;;;;;;6.27;3.80;;;;;;;11.86;63.00;93241.47;5052013;28;20195;-60
2022/04/07 06:12:25;;;;;;;3.90;2.90;;;;;;;11.86;64.56;93212.72;5051750;28;20178;-63
2022/04/07 06:14:50;;;;;;;12.53;4.10;;;;;;;11.90;66.04;93203.75;5052032;28;20218;-63
2022/04/07 06:17:16;;;;;;;8.83;6.07;;;;;;;11.96;66.44;93200.53;5050519;28;20223;-62
2022/04/07 06:19:42;;;;;;;7.37;4.80;;;;;;;12.11;64.21;93224.22;5052051;28;20190;-60
2022/04/07 06:22:07;;;;;;;9.13;5.00;;;;;;;12.10;64.57;93228.53;5051647;28;20303;-63
2022/04/07 06:24:35;;;;;;;10.10;5.10;;;;;;;12.16;65.07;93217.66;5052609;28;20186;-64
2022/04/07 06:27:01;;;;;;;11.87;5.00;;;;;;;12.10;65.57;93203.06;5051670;28;20193;-62
2022/04/07 06:29:26;;;;;;;13.77;9.27;;;;;;;12.36;65.91;93210.28;5052218;28;20631;-62
2022/04/07 06:31:52;;;;;;;16.07;9.27;;;;;;;12.37;66.16;93209.31;5051496;28;20201;-61
2022/04/07 06:34:18;;;;;;;15.20;6.13;;;;;;;12.48;65.29;93229.28;5051810;28;20174;-64
2022/04/07 06:36:43;;;;;;;16.30;8.70;;;;;;;12.51;64.37;93223.81;5051506;28;20213;-64
2022/04/07 06:39:09;;;;;;;10.60;6.40;;;;;;;12.59;62.56;93247.47;5050551;28;20197;-60
2022/04/07 06:41:34;;;;;;;10.00;4.30;;;;;;;12.31;63.16;93238.03;5050173;28;20209;-64
2022/04/07 06:44:00;;;;;;;10.30;7.07;;;;;;;12.46;64.87;93209.03;5051684;28;20200;-62
2022/04/07 06:46:25;;;;;;;14.13;6.10;;;;;;;12.31;63.14;93226.09;5053118;28;20202;-63
2022/04/07 06:48:51;;;;;;;7.23;4.10;;;;;;;12.51;62.65;93226.34;5054312;28;20204;-61
2022/04/07 06:51:17;;;;;;;6.77;3.93;;;;;;;12.42;62.30;93230.75;5055806;28;20683;-64
2022/04/07 06:53:43;;;;;;;15.07;5.23;;;;;;;12.37;62.86;93234.78;5055505;28;20213;-62
2022/04/07 06:56:10;;;;;;;10.00;4.83;;;;;;;12.50;62.24;93238.31;5055702;28;20262;-64
2022/04/07 06:58:35;;;;;;;7.50;4.37;;;;;;;12.61;61.93;93237.88;5055733;28;20186;-64
2022/04/07 07:01:01;;;;;;;6.43;4.50;;;;;;;12.51;62.29;93239.91;5055813;28;20225;-62
2022/04/07 07:03:28;;;;;;;10.17;7.87;;;;;;;12.84;64.36;93222.47;5055213;28;20177;-59
2022/04/07 07:05:58;;;;;;;8.17;4.33;;;;;;;12.84;62.80;93229.31;5056000;28;20724;-63
2022/04/07 07:08:24;;;;;;;6.37;3.80;;;;;;;12.77;63.09;93229.22;5055226;28;20630;-59
2022/04/07 07:10:50;;;;;;;10.60;5.10;;;;;;;13.00;64.11;93201.84;5055713;28;20533;-62
2022/04/07 07:13:21;;;;;;;8.07;4.60;;;;;;;12.91;62.19;93232.75;5055250;28;20191;-62
2022/04/07 07:15:48;;;;;;;6.00;4.00;;;;;;;13.02;63.03;93210.13;5055549;28;20241;-60
2022/04/07 07:18:13;;;;;;;8.30;4.77;;;;;;;13.03;62.96;93205.81;5055335;28;20186;-59
2022/04/07 07:20:40;;;;;;;7.37;3.80;;;;;;;12.96;62.30;93217.69;5055355;28;20278;-62
2022/04/07 07:23:07;;;;;;;6.97;3.73;;;;;;;13.22;62.91;93210.34;5053513;28;20208;-63
2022/04/07 07:25:33;;;;;;;6.87;3.47;;;;;;;13.25;60.71;93241.38;5054694;28;20201;-61
2022/04/07 07:28:00;;;;;;;6.73;4.00;;;;;;;13.15;60.16;93248.53;5054892;28;20178;-64
2022/04/07 07:30:26;;;;;;;9.67;4.03;;;;;;;13.27;58.37;93270.06;5055196;28;20285;-62
2022/04/07 07:32:51;;;;;;;13.00;4.23;;;;;;;13.54;59.33;93229.50;5054724;28;20208;-61
2022/04/07 07:35:18;;;;;;;10.47;3.80;;;;;;;13.65;57.24;93287.75;5054963;28;20220;-63
2022/04/07 07:38:10;;;;;;;9.60;3.90;;;;;;;13.65;57.06;93257.09;5054516;28;20196;-62
2022/04/07 07:40:35;;;;;;;5.13;3.53;;;;;;;13.64;56.68;93273.38;5052727;28;20241;-62
2022/04/07 07:43:02;;;;;;;7.87;4.30;;;;;;;13.51;57.56;93251.09;5054659;28;20197;-62
2022/04/07 07:45:29;;;;;;;11.53;3.73;;;;;;;13.64;57.50;93258.88;5053252;28;20205;-59
2022/04/07 07:47:55;;;;;;;11.17;4.23;;;;;;;13.58;58.86;93193.22;5054357;28;20670;-63
2022/04/07 07:50:21;;;;;;;5.33;3.73;;;;;;;13.54;60.44;93173.34;5054724;28;20678;-64
2022/04/07 07:52:47;;;;;;;9.53;4.30;;;;;;;13.60;60.47;93195.56;5054371;28;20204;-62
2022/04/07 07:55:13;;;;;;;7.17;4.50;;;;;;;13.86;59.23;93206.00;5054894;28;20238;-64
2022/04/07 07:57:40;;;;;;;10.83;4.30;;;;;;;13.31;58.84;93189.63;5054073;28;20264;-63
2022/04/07 08:00:07;;;;;;;7.33;4.27;;;;;;;13.85;58.32;93217.22;5054168;28;20197;-65
2022/04/07 08:02:37;;;;;;;10.53;4.10;;;;;;;14.30;59.19;93188.66;5054065;28;20173;-64
2022/04/07 08:05:04;;;;;;;14.00;3.88;;;;;;;14.58;58.52;93198.84;5059391;23;20225;-64
2022/04/07 08:07:30;;;;;;;8.55;4.18;;;;;;;14.84;58.80;93209.19;5053846;28;20264;-65
2022/04/07 08:09:56;;;;;;;8.60;3.75;;;;;;;14.80;54.44;93264.28;5054281;28;20320;-64
2022/04/07 08:12:23;;;;;;;8.43;4.10;;;;;;;14.84;54.74;93225.34;5053635;28;20201;-65
2022/04/07 08:14:48;;;;;;;4.50;3.78;;;;;;;15.12;53.37;93226.03;5052593;28;20185;-64
2022/04/07 08:17:14;;;;;;;7.30;4.28;;;;;;;15.34;53.17;93234.34;5053811;28;20212;-64
2022/04/07 08:19:40;;;;;;;7.40;4.03;;;;;;;15.35;53.75;93220.56;5053634;28;20670;-64
2022/04/07 08:22:07;;;;;;;6.93;4.53;;;;;;;15.53;52.50;93261.03;5053972;28;20216;-63
2022/04/07 08:24:33;;;;;;;13.52;4.47;;;;;;;15.53;52.85;93227.72;5054101;28;20616;-62
2022/04/07 08:26:58;;;;;;;6.35;3.53;;;;;;;15.92;50.92;93222.63;5053638;28;20613;-61
2022/04/07 08:29:24;;;;;;;17.33;4.63;;;;;;;15.88;50.55;93226.56;5053947;28;20212;-60
2022/04/07 08:31:51;;;;;;;9.75;4.20;;;;;;;15.71;51.05;93208.25;5053296;28;20284;-59
2022/04/07 08:34:21;;;;;;;7.30;4.05;;;;;;;15.85;51.59;93193.66;5053877;28;20277;-60
2022/04/07 08:36:47;;;;;;;9.40;4.10;;;;;;;15.79;50.02;93227.75;5052364;28;20208;-60
2022/04/07 08:39:13;;;;;;;10.75;4.35;;;;;;;15.83;50.10;93205.88;5052141;28;20643;-60
2022/04/07 08:41:42;;;;;;;7.78;4.30;;;;;;;16.14;50.56;93182.97;5053320;28;20274;-61
2022/04/07 08:44:07;;;;;;;9.95;3.72;;;;;;;16.36;50.78;93197.16;5053890;28;20178;-61
2022/04/07 08:46:33;;;;;;;6.57;3.80;;;;;;;16.67;49.83;93210.16;5053581;28;20198;-61
2022/04/07 08:49:03;;;;;;;10.02;3.92;;;;;;;16.91;48.38;93223.31;5052203;28;20196;-60
2022/04/07 08:51:37;;;;;;;11.65;3.88;;;;;;;16.77;48.00;93219.97;5053356;28;20641;-60
2022/04/07 08:54:02;;;;;;;9.40;3.55;;;;;;;17.14;47.39;93228.72;5053332;28;20254;-60
2022/04/07 08:56:28;;;;;;;7.72;4.60;;;;;;;16.78;48.30;93206.97;5052015;28;20280;-61
2022/04/07 08:58:54;;;;;;;11.85;4.38;;;;;;;16.74;47.81;93200.66;5053241;28;20612;-61
2022/04/07 09:01:20;;;;;;;7.80;3.80;;;;;;;16.28;49.70;93178.66;5052923;28;20217;-62
2022/04/07 09:03:45;;;;;;;9.13;3.97;;;;;;;16.02;49.25;93179.44;5052931;28;20193;-61
2022/04/07 09:06:15;;;;;;;7.28;4.00;;;;;;;15.69;51.17;93147.94;5053224;28;20208;-62
2022/04/07 09:08:41;;;;;;;7.53;4.13;;;;;;;15.92;49.73;93171.38;5051570;28;20643;-62
2022/04/07 09:11:09;;;;;;;6.78;4.10;;;;;;;15.72;51.38;93147.53;5052999;28;20666;-62
2022/04/07 09:13:36;;;;;;;8.25;4.72;;;;;;;15.91;51.43;93151.88;5053125;28;20178;-63
2022/04/07 09:16:04;;;;;;;6.47;4.28;;;;;;;15.62;51.80;93150.50;5052824;28;20623;-60
2022/04/07 09:18:36;;;;;;;7.28;3.72;;;;;;;15.45;51.73;93154.44;5051502;28;20288;-61
2022/04/07 09:21:05;;;;;;;7.18;3.95;;;;;;;15.52;52.05;93154.44;5052703;28;20240;-61
2022/04/07 09:23:40;;;;;;;10.88;4.05;;;;;;;14.98;52.87;93139.16;5052845;28;20244;-62
2022/04/07 09:26:11;;;;;;;8.48;4.00;;;;;;;14.82;53.50;93126.72;5052550;28;20190;-61
2022/04/07 09:28:36;;;;;;;5.88;3.58;;;;;;;14.79;55.11;93109.19;5052957;28;20182;-63
2022/04/07 09:31:02;;;;;;;10.27;4.47;;;;;;;14.55;54.74;93123.28;5051154;28;20266;-63
2022/04/07 09:33:29;;;;;;;7.25;3.83;;;;;;;14.14;55.44;93138.59;5052595;28;20177;-62
2022/04/07 09:36:11;;;;;;;11.52;4.63;;;;;;;13.99;55.79;93124.34;5052401;28;20206;-64
2022/04/07 09:38:38;;;;;;;12.68;4.00;;;;;;;13.84;56.63;93126.22;5051336;28;20193;-64
2022/04/07 09:41:08;;;;;;;10.98;4.32;;;;;;;13.91;56.19;93125.31;5052154;28;20213;-63
2022/04/07 09:43:48;;;;;;;5.73;3.70;;;;;;;13.87;56.66;93120.75;5052280;28;20197;-62
2022/04/07 09:46:15;;;;;;;7.33;3.90;;;;;;;13.96;55.98;93132.38;5050958;28;20251;-61
2022/04/07 09:48:58;;;;;;;7.83;3.93;;;;;;;13.75;57.60;93119.69;5052417;28;20203;-62
2022/04/07 09:51:25;;;;;;;4.55;3.17;;;;;;;13.71;57.18;93126.94;5051943;28;20237;-62
2022/04/07 09:53:55;;;;;;;7.77;3.77;;;;;;;13.75;55.83;93137.56;5052265;28;20301;-63
2022/04/07 09:56:21;;;;;;;13.35;3.90;;;;;;;13.58;57.39;93129.38;5052005;28;20245;-64
2022/04/07 09:58:48;;;;;;;10.70;3.97;;;;;;;13.52;58.58;93129.31;5052194;28;20182;-63
2022/04/07 10:01:14;;;;;;;6.32;3.50;;;;;;;13.79;58.52;93143.88;5051729;28;20208;-63
2022/04/07 10:03:40;;;;;;;8.38;4.45;;;;;;;13.15;62.52;93094.69;5051933;28;20573;-63
2022/04/07 10:06:07;;;;;;;11.23;4.87;;;;;;;13.42;66.34;93068.38;5075584;23;20753;-62
2022/04/07 10:08:36;;;;;;;11.17;5.17;;;;;;;13.18;65.95;93092.56;5071771;28;20244;-63
2022/04/07 10:11:03;;;;;;;14.70;4.30;;;;;;;12.16;71.34;93054.63;5071809;28;20203;-62
2022/04/07 10:13:30;;;;;;;16.03;4.60;;;;;;;11.34;83.96;93070.94;5072053;28;20177;-63
2022/04/07 10:15:56;;;;;;;15.10;4.57;;;;;;;11.02;89.01;93076.31;5071627;28;20215;-62
2022/04/07 10:18:35;;;;;;;13.17;4.30;;;;;;;10.49;95.91;93083.97;5071748;28;20241;-61
2022/04/07 10:21:04;;;;;;;20.37;4.40;;;;;;;10.12;99.96;93110.03;5070745;28;20224;-62
2022/04/07 10:23:52;;;;;;;13.73;5.07;;;;;;;9.90;100.00;93106.44;5071709;28;20176;-62
2022/04/07 10:26:19;;;;;;;15.53;4.60;;;;;;;9.88;100.00;93098.19;5072027;28;20216;-65
2022/04/07 10:28:54;;;;;;;15.20;6.00;;;;;;;9.95;100.00;93108.50;5070449;28;20237;-62
2022/04/07 10:31:19;;;;;;;12.60;4.97;;;;;;;9.88;100.00;93117.69;5071736;28;20200;-62
2022/04/07 10:33:46;;;;;;;16.70;4.73;;;;;;;9.82;100.00;93103.91;5071598;28;20663;-62
2022/04/07 10:36:17;;;;;;;12.33;5.93;;;;;;;9.82;100.00;93093.78;5071949;28;20201;-60
2022/04/07 10:38:54;;;;;;;14.53;5.97;;;;;;;9.96;100.00;93099.91;5071628;28;20180;-63
2022/04/07 10:41:37;;;;;;;18.90;6.33;;;;;;;10.02;100.00;93084.81;5071573;28;20208;-61
2022/04/07 10:44:17;;;;;;;15.30;7.40;;;;;;;10.12;100.00;93090.50;5071961;28;20185;-61
2022/04/07 10:46:43;;;;;;;14.80;8.40;;;;;;;10.32;100.00;93079.97;5071739;28;20204;-62
2022/04/07 10:49:11;;;;;;;14.73;7.17;;;;;;;10.62;100.00;93086.75;5071688;28;20181;-62
2022/04/07 10:51:47;;;;;;;19.60;8.70;;;;;;;10.56;100.00;93087.44;5071464;28;20201;-63
2022/04/07 10:54:14;;;;;;;11.97;7.97;;;;;;;10.83;100.00;93084.38;5071641;28;20591;-64
2022/04/07 10:56:46;;;;;;;18.37;8.97;;;;;;;11.05;100.00;93078.50;5070628;28;20241;-63
2022/04/07 10:59:32;;;;;;;14.97;9.30;;;;;;;11.35;100.00;93075.03;5071486;28;20631;-63
2022/04/07 11:02:05;;;;;;;12.17;8.73;;;;;;;11.53;100.00;93064.56;5071244;28;20694;-64
2022/04/07 11:04:39;;;;;;;11.90;8.10;;;;;;;11.16;100.00;93073.00;5071610;28;20288;-60
2022/04/07 11:07:05;;;;;;;12.73;8.20;;;;;;;11.36;100.00;93060.59;5070029;28;20216;-63
2022/04/07 11:09:52;;;;;;;13.23;6.27;;;;;;;11.41;100.00;93073.59;5071813;28;20177;-64
2022/04/07 11:12:25;;;;;;;12.00;7.50;;;;;;;12.06;100.00;93071.16;5071650;28;20295;-65
2022/04/07 11:14:56;;;;;;;12.10;6.00;;;;;;;12.28;100.00;93070.25;5071382;28;20223;-63
2022/04/07 11:17:30;;;;;;;14.43;6.87;;;;;;;12.44;100.00;93073.34;5071890;28;20211;-61
2022/04/07 11:20:08;;;;;;;11.13;5.90;;;;;;;12.70;100.00;93106.00;5071282;28;20208;-63
2022/04/07 11:22:55;;;;;;;16.87;6.40;;;;;;;12.58;100.00;93112.53;5071286;28;20191;-61
2022/04/07 11:25:24;;;;;;;11.80;5.90;;;;;;;12.72;100.00;93106.63;5069997;28;20335;-61
2022/04/07 11:28:10;;;;;;;15.37;6.20;;;;;;;12.87;100.00;93094.59;5071792;28;20187;-61
2022/04/07 11:30:43;;;;;;;10.80;5.27;;;;;;;12.89;100.00;93082.44;5069927;28;20284;-65
2022/04/07 11:33:18;;;;;;;13.23;6.63;;;;;;;12.88;100.00;93095.38;5073656;28;20212;-59